Time;durP1;ratioP1;P1;durP2;ratioP2;P2;SDS_P1;SDS_P2;PMS_P1;PMS_P2;Temp;Humidity;BMP_temperature;BMP_pressure;BME280_temperature;BME280_humidity;BME280_pressure;Samples;Min_cycle;Max_cycle;Signal;HPM_P1;HPM_P2
2023/05/10 00:00:00;;;;;;;9.15;3.10;;;;;;;;;;5036554;28;20030;-77
2023/05/10 00:02:26;;;;;;;5.57;2.88;;;;;;;;;;5036157;28;20033;-77
2023/05/10 00:04:55;;;;;;;3.88;2.25;;;;;;;;;;5033353;28;20052;-78
2023/05/10 00:07:22;;;;;;;5.15;3.13;;;;;;;;;;5032941;28;20018;-77
2023/05/10 00:09:48;;;;;;;3.88;2.60;;;;;;;;;;5033278;28;20022;-77
2023/05/10 00:12:16;;;;;;;6.00;2.20;;;;;;;;;;5015341;28;20026;-75
2023/05/10 00:14:42;;;;;;;2.60;1.88;;;;;;;;;;5015110;28;20109;-74
2023/05/10 00:17:08;;;;;;;3.83;2.58;;;;;;;;;;5014847;28;20242;-74
2023/05/10 00:19:35;;;;;;;4.55;2.42;;;;;;;;;;5032368;28;20021;-74
2023/05/10 00:22:01;;;;;;;2.35;2.00;;;;;;;;;;5013508;28;20069;-74
2023/05/10 00:24:27;;;;;;;8.73;2.55;;;;;;;;;;5032151;28;20022;-75
2023/05/10 00:26:53;;;;;;;2.88;2.45;;;;;;;;;;5032786;28;20025;-75
2023/05/10 00:29:19;;;;;;;4.82;2.47;;;;;;;;;;5032436;28;20087;-74
2023/05/10 00:31:45;;;;;;;4.90;2.42;;;;;;;;;;5032737;28;20096;-75
2023/05/10 00:34:11;;;;;;;4.40;2.28;;;;;;;;;;5015194;28;20480;-76
2023/05/10 00:36:38;;;;;;;2.22;2.00;;;;;;;;;;5022555;23;20206;-74
2023/05/10 00:39:04;;;;;;;4.55;2.28;;;;;;;;;;4984748;28;20031;-74
2023/05/10 00:41:33;;;;;;;3.42;2.35;;;;;;;;;;4992420;28;20022;-74
2023/05/10 00:44:00;;;;;;;6.93;2.55;;;;;;;;;;4983194;28;20035;-73
2023/05/10 00:46:26;;;;;;;2.97;2.10;;;;;;;;;;4986476;28;20054;-74
2023/05/10 00:48:53;;;;;;;3.28;2.33;;;;;;;;;;4992460;28;20647;-75
2023/05/10 00:51:19;;;;;;;2.38;2.10;;;;;;;;;;4988637;28;20030;-74
2023/05/10 00:56:35;;;;;;;3.28;2.40;;;;;;;;;;4969855;28;20038;-74
2023/05/10 00:59:01;;;;;;;5.00;2.70;;;;;;;;;;4986905;28;20520;-74
2023/05/10 01:01:28;;;;;;;12.45;3.00;;;;;;;;;;4973289;28;20026;-74
2023/05/10 01:03:55;;;;;;;9.73;2.20;;;;;;;;;;4989411;28;20037;-74
2023/05/10 01:06:21;;;;;;;3.65;2.10;;;;;;;;;;4996842;28;20026;-74
2023/05/10 01:08:47;;;;;;;2.97;2.30;;;;;;;;;;4987203;28;20116;-74
2023/05/10 01:11:13;;;;;;;2.53;2.08;;;;;;;;;;4986875;28;20102;-74
2023/05/10 01:13:41;;;;;;;4.85;2.47;;;;;;;;;;4986569;28;20102;-75
2023/05/10 01:16:08;;;;;;;2.97;1.90;;;;;;;;;;4982311;28;20028;-74
2023/05/10 01:18:35;;;;;;;4.35;2.33;;;;;;;;;;4992113;28;20025;-74
2023/05/10 01:21:13;;;;;;;3.33;2.10;;;;;;;;;;5002202;28;20447;-74
2023/05/10 01:23:52;;;;;;;5.35;2.40;;;;;;;;;;5003183;28;20034;-74
2023/05/10 01:26:27;;;;;;;6.90;2.20;;;;;;;;;;4989716;28;20105;-74
2023/05/10 01:29:05;;;;;;;3.42;2.00;;;;;;;;;;4984975;28;20512;-75
2023/05/10 01:31:52;;;;;;;3.25;2.08;;;;;;;;;;4967172;28;20033;-75
2023/05/10 01:34:21;;;;;;;3.78;2.22;;;;;;;;;;4991918;28;20045;-74
2023/05/10 01:37:08;;;;;;;2.22;1.92;;;;;;;;;;5008018;28;20084;-75
2023/05/10 01:39:46;;;;;;;3.58;2.53;;;;;;;;;;4993974;28;20022;-75
2023/05/10 01:42:14;;;;;;;2.97;2.58;;;;;;;;;;4983312;28;20561;-74
2023/05/10 01:44:43;;;;;;;7.50;2.67;;;;;;;;;;4985385;28;20034;-74
2023/05/10 01:47:15;;;;;;;3.03;2.25;;;;;;;;;;4975785;28;20034;-74
2023/05/10 01:49:44;;;;;;;6.63;2.42;;;;;;;;;;4974593;28;20046;-74
2023/05/10 01:52:12;;;;;;;4.03;2.17;;;;;;;;;;5007513;28;20500;-75
2023/05/10 01:54:41;;;;;;;5.18;2.15;;;;;;;;;;4992812;28;20098;-74
2023/05/10 01:57:10;;;;;;;4.93;2.45;;;;;;;;;;4991447;28;20106;-74
2023/05/10 01:59:40;;;;;;;3.78;1.98;;;;;;;;;;4989078;28;20018;-73
2023/05/10 02:02:06;;;;;;;3.78;2.38;;;;;;;;;;4976986;28;20082;-75
2023/05/10 02:04:36;;;;;;;3.95;2.60;;;;;;;;;;4988525;28;20027;-74
2023/05/10 02:07:02;;;;;;;4.72;2.33;;;;;;;;;;4988092;28;20635;-75
2023/05/10 02:09:29;;;;;;;3.85;2.15;;;;;;;;;;4993786;28;20575;-75
2023/05/10 02:11:56;;;;;;;3.85;2.30;;;;;;;;;;4977669;28;20017;-75
2023/05/10 02:14:24;;;;;;;5.88;2.10;;;;;;;;;;4983005;28;20054;-75
2023/05/10 02:16:51;;;;;;;5.00;2.72;;;;;;;;;;4984932;28;20029;-74
2023/05/10 02:19:17;;;;;;;6.10;2.38;;;;;;;;;;4975370;28;20030;-74
2023/05/10 02:21:44;;;;;;;5.20;2.55;;;;;;;;;;4992994;28;20030;-74
2023/05/10 02:24:11;;;;;;;2.95;2.35;;;;;;;;;;4981713;28;20041;-74
2023/05/10 02:26:38;;;;;;;3.55;2.50;;;;;;;;;;4989387;28;20022;-75
2023/05/10 02:29:06;;;;;;;2.83;2.17;;;;;;;;;;4986199;28;20026;-73
2023/05/10 02:31:33;;;;;;;4.63;2.20;;;;;;;;;;4981672;28;20086;-73
2023/05/10 02:34:00;;;;;;;8.13;2.53;;;;;;;;;;4974509;28;20018;-73
2023/05/10 02:36:27;;;;;;;3.55;2.10;;;;;;;;;;4999359;28;20083;-74
2023/05/10 02:38:53;;;;;;;4.25;2.38;;;;;;;;;;5011248;28;20080;-73
2023/05/10 02:41:22;;;;;;;4.07;2.15;;;;;;;;;;5012065;28;20041;-75
2023/05/10 02:43:50;;;;;;;2.58;2.10;;;;;;;;;;5015105;28;20105;-75
2023/05/10 02:46:16;;;;;;;4.03;2.10;;;;;;;;;;5014991;28;20495;-74
2023/05/10 02:48:42;;;;;;;6.03;2.80;;;;;;;;;;5014718;28;20073;-75
2023/05/10 02:51:09;;;;;;;4.95;2.50;;;;;;;;;;5014925;28;20065;-74
2023/05/10 02:53:36;;;;;;;4.00;2.35;;;;;;;;;;5015429;28;20136;-75
2023/05/10 02:56:09;;;;;;;2.67;1.92;;;;;;;;;;5015410;28;20028;-75
2023/05/10 02:58:35;;;;;;;4.50;2.47;;;;;;;;;;4996528;28;20029;-75
2023/05/10 03:01:01;;;;;;;3.45;2.35;;;;;;;;;;4995270;28;20026;-74
2023/05/10 03:03:27;;;;;;;3.70;2.20;;;;;;;;;;4994841;28;20027;-74
2023/05/10 03:05:55;;;;;;;3.28;2.70;;;;;;;;;;4998074;28;20048;-73
2023/05/10 03:08:21;;;;;;;2.95;2.58;;;;;;;;;;5017811;28;20076;-74
2023/05/10 03:10:56;;;;;;;4.80;2.00;;;;;;;;;;5008054;28;20421;-74
2023/05/10 03:13:29;;;;;;;2.75;2.25;;;;;;;;;;4991282;28;20041;-73
2023/05/10 03:16:00;;;;;;;3.38;2.45;;;;;;;;;;4988935;28;20461;-73
2023/05/10 03:18:34;;;;;;;12.45;2.88;;;;;;;;;;4984616;28;20088;-73
2023/05/10 03:21:05;;;;;;;6.95;2.55;;;;;;;;;;4997981;28;20033;-73
2023/05/10 03:23:35;;;;;;;5.68;2.70;;;;;;;;;;5012191;28;20026;-73
2023/05/10 03:26:01;;;;;;;4.78;2.50;;;;;;;;;;4988590;28;20022;-73
2023/05/10 03:28:28;;;;;;;4.28;2.35;;;;;;;;;;4975268;28;20027;-73
2023/05/10 03:30:54;;;;;;;3.00;2.30;;;;;;;;;;4983502;28;20033;-74
2023/05/10 03:33:20;;;;;;;4.28;2.63;;;;;;;;;;4982593;28;20065;-74
2023/05/10 03:35:46;;;;;;;3.20;2.55;;;;;;;;;;4995674;28;20089;-73
2023/05/10 03:38:13;;;;;;;3.05;2.58;;;;;;;;;;5013481;28;20153;-71
2023/05/10 03:40:39;;;;;;;3.38;2.17;;;;;;;;;;5013646;28;20112;-73
2023/05/10 03:43:05;;;;;;;7.40;2.60;;;;;;;;;;4995768;28;20061;-74
2023/05/10 03:45:31;;;;;;;5.97;2.60;;;;;;;;;;4995893;28;20449;-74
2023/05/10 03:47:57;;;;;;;4.50;2.15;;;;;;;;;;4995603;28;20365;-74
2023/05/10 03:50:23;;;;;;;4.32;2.38;;;;;;;;;;4995844;28;20575;-74
2023/05/10 03:52:50;;;;;;;2.55;2.25;;;;;;;;;;5013175;28;20030;-75
2023/05/10 03:55:16;;;;;;;4.05;2.55;;;;;;;;;;4995961;28;20066;-74
2023/05/10 03:57:42;;;;;;;6.32;2.42;;;;;;;;;;5013124;28;20022;-74
2023/05/10 04:00:08;;;;;;;5.38;2.78;;;;;;;;;;5000436;28;20026;-75
2023/05/10 04:02:34;;;;;;;5.00;2.47;;;;;;;;;;4993741;28;20034;-75
2023/05/10 04:05:00;;;;;;;2.88;1.90;;;;;;;;;;4993734;28;20084;-75
2023/05/10 04:07:27;;;;;;;3.65;2.42;;;;;;;;;;4975859;28;20027;-74
2023/05/10 04:09:53;;;;;;;2.65;2.45;;;;;;;;;;4993627;28;20608;-74
2023/05/10 04:12:19;;;;;;;4.80;2.20;;;;;;;;;;4993394;28;20126;-74
2023/05/10 04:14:45;;;;;;;3.67;2.05;;;;;;;;;;4993556;28;20162;-74
2023/05/10 04:17:11;;;;;;;5.15;2.17;;;;;;;;;;4993248;28;20015;-74
2023/05/10 04:19:37;;;;;;;6.40;1.80;;;;;;;;;;4993717;28;20024;-74
2023/05/10 04:22:03;;;;;;;5.32;2.65;;;;;;;;;;4987040;28;20026;-75
2023/05/10 04:24:29;;;;;;;4.65;2.03;;;;;;;;;;5013008;28;20033;-74
2023/05/10 04:26:55;;;;;;;3.80;1.92;;;;;;;;;;4995160;28;20502;-76
2023/05/10 04:29:21;;;;;;;3.50;1.83;;;;;;;;;;5012739;28;20030;-74
2023/05/10 04:31:48;;;;;;;5.63;1.98;;;;;;;;;;5012962;28;20396;-75
2023/05/10 04:34:14;;;;;;;2.03;1.83;;;;;;;;;;5012748;28;20105;-74
2023/05/10 04:36:40;;;;;;;10.82;2.47;;;;;;;;;;5012201;28;20036;-75
2023/05/10 04:39:06;;;;;;;5.57;2.22;;;;;;;;;;5012968;28;20025;-74
2023/05/10 04:41:32;;;;;;;3.42;1.70;;;;;;;;;;4995006;28;20029;-74
2023/05/10 04:43:58;;;;;;;2.75;1.80;;;;;;;;;;5012699;28;20030;-75
2023/05/10 04:46:24;;;;;;;5.75;1.48;;;;;;;;;;5012491;28;20030;-75
2023/05/10 04:48:50;;;;;;;6.25;2.42;;;;;;;;;;5012499;28;20033;-75
2023/05/10 04:51:16;;;;;;;3.90;1.83;;;;;;;;;;4994863;28;20026;-75
2023/05/10 04:53:43;;;;;;;2.00;1.77;;;;;;;;;;5012645;28;20400;-75
2023/05/10 04:56:09;;;;;;;2.72;1.88;;;;;;;;;;5012298;28;20084;-75
2023/05/10 04:58:35;;;;;;;6.95;1.90;;;;;;;;;;5012277;28;20045;-75
2023/05/10 05:01:07;;;;;;;2.47;1.60;;;;;;;;;;4991744;28;20030;-75
2023/05/10 05:03:34;;;;;;;3.67;1.85;;;;;;;;;;4987927;28;20122;-76
2023/05/10 05:06:00;;;;;;;4.10;1.60;;;;;;;;;;4975021;28;20500;-76
2023/05/10 05:08:26;;;;;;;8.23;2.17;;;;;;;;;;4974590;28;20027;-76
2023/05/10 05:10:52;;;;;;;6.15;2.17;;;;;;;;;;4992550;28;20025;-75
2023/05/10 05:13:18;;;;;;;6.50;2.15;;;;;;;;;;4992553;28;20070;-75
2023/05/10 05:15:44;;;;;;;4.32;1.73;;;;;;;;;;4992186;28;20030;-76
2023/05/10 05:18:12;;;;;;;6.55;2.08;;;;;;;;;;4989863;28;20033;-76
2023/05/10 05:20:38;;;;;;;4.22;1.95;;;;;;;;;;4982824;28;20113;-75
2023/05/10 05:23:04;;;;;;;7.22;2.00;;;;;;;;;;4974287;28;20442;-74
2023/05/10 05:25:30;;;;;;;9.55;1.88;;;;;;;;;;4976715;28;20049;-76
2023/05/10 05:27:56;;;;;;;4.78;1.75;;;;;;;;;;4992035;28;20022;-76
2023/05/10 05:30:22;;;;;;;1.60;1.42;;;;;;;;;;4975385;28;20026;-75
2023/05/10 05:32:48;;;;;;;6.07;2.08;;;;;;;;;;4975167;28;20057;-77
2023/05/10 05:35:14;;;;;;;4.32;1.70;;;;;;;;;;4992312;28;20058;-76
2023/05/10 05:37:40;;;;;;;2.20;1.70;;;;;;;;;;4984388;28;20564;-75
2023/05/10 05:40:07;;;;;;;2.38;1.75;;;;;;;;;;4983337;28;20126;-76
2023/05/10 05:42:33;;;;;;;4.97;1.77;;;;;;;;;;4975465;28;20092;-76
2023/05/10 05:44:59;;;;;;;3.28;1.85;;;;;;;;;;4991382;28;20110;-74
2023/05/10 05:47:25;;;;;;;3.10;2.08;;;;;;;;;;4992145;28;20018;-74
2023/05/10 05:49:51;;;;;;;3.78;1.88;;;;;;;;;;4992081;28;20022;-74
2023/05/10 05:52:17;;;;;;;4.40;1.65;;;;;;;;;;4992063;28;20393;-75
2023/05/10 05:54:43;;;;;;;6.70;2.15;;;;;;;;;;4991959;28;20058;-74
2023/05/10 05:57:09;;;;;;;2.30;1.45;;;;;;;;;;4974294;28;20031;-74
2023/05/10 05:59:36;;;;;;;5.78;1.92;;;;;;;;;;4986836;28;20565;-75
2023/05/10 06:02:02;;;;;;;6.70;1.90;;;;;;;;;;4988023;28;20033;-75
2023/05/10 06:04:28;;;;;;;2.33;1.83;;;;;;;;;;4976575;28;20031;-75
2023/05/10 06:06:54;;;;;;;11.57;2.33;;;;;;;;;;4970425;28;20030;-75
2023/05/10 06:09:20;;;;;;;3.13;1.67;;;;;;;;;;4983375;28;20031;-74
2023/05/10 06:11:46;;;;;;;2.67;1.73;;;;;;;;;;4985174;28;20030;-74
2023/05/10 06:14:12;;;;;;;3.70;1.92;;;;;;;;;;4991477;28;20022;-74
2023/05/10 06:16:38;;;;;;;7.07;1.83;;;;;;;;;;5000006;28;20022;-75
2023/05/10 06:19:04;;;;;;;2.83;1.80;;;;;;;;;;5013725;28;20022;-74
2023/05/10 06:21:30;;;;;;;3.20;1.95;;;;;;;;;;5013557;28;20025;-75
2023/05/10 06:23:56;;;;;;;5.18;1.80;;;;;;;;;;5013191;28;20026;-75
2023/05/10 06:26:22;;;;;;;4.43;1.98;;;;;;;;;;5013683;28;20249;-75
2023/05/10 06:28:48;;;;;;;7.90;2.20;;;;;;;;;;5013320;28;20105;-76
2023/05/10 06:31:15;;;;;;;3.92;1.90;;;;;;;;;;4990475;28;20078;-75
2023/05/10 06:33:41;;;;;;;3.63;1.80;;;;;;;;;;4993868;28;20028;-75
2023/05/10 06:36:07;;;;;;;2.58;1.90;;;;;;;;;;4993173;28;20030;-73
2023/05/10 06:38:33;;;;;;;5.68;1.63;;;;;;;;;;5033184;23;20046;-76
2023/05/10 06:41:00;;;;;;;2.60;1.38;;;;;;;;;;5012952;28;20096;-76
2023/05/10 06:43:33;;;;;;;6.97;1.90;;;;;;;;;;5014560;28;20025;-76
2023/05/10 06:46:02;;;;;;;2.45;1.75;;;;;;;;;;5015825;28;20026;-77
2023/05/10 06:48:28;;;;;;;5.45;2.13;;;;;;;;;;5015137;28;20057;-77
2023/05/10 06:50:54;;;;;;;3.72;1.70;;;;;;;;;;5014777;28;20029;-78
2023/05/10 06:53:20;;;;;;;4.75;1.83;;;;;;;;;;5013861;28;20096;-77
2023/05/10 06:55:49;;;;;;;3.33;2.10;;;;;;;;;;5014348;28;20215;-78
2023/05/10 06:58:15;;;;;;;2.95;1.83;;;;;;;;;;5013750;28;20507;-77
2023/05/10 07:00:43;;;;;;;5.25;2.20;;;;;;;;;;5013246;28;20038;-77
2023/05/10 07:03:10;;;;;;;4.53;1.95;;;;;;;;;;5011897;28;20113;-78
2023/05/10 07:05:36;;;;;;;4.65;1.88;;;;;;;;;;5012117;28;20022;-77
2023/05/10 07:08:02;;;;;;;5.18;1.70;;;;;;;;;;5012073;28;20566;-78
2023/05/10 07:10:29;;;;;;;4.63;1.92;;;;;;;;;;4995058;28;20113;-77
2023/05/10 07:12:55;;;;;;;4.43;1.95;;;;;;;;;;5012168;28;20108;-78
2023/05/10 07:15:21;;;;;;;5.32;1.80;;;;;;;;;;5012402;28;20037;-77
2023/05/10 07:17:47;;;;;;;9.20;2.00;;;;;;;;;;5013161;28;20061;-78
2023/05/10 07:20:14;;;;;;;5.03;2.22;;;;;;;;;;5013807;28;20026;-78
2023/05/10 07:22:40;;;;;;;5.00;2.42;;;;;;;;;;4996017;28;20484;-78
2023/05/10 07:25:06;;;;;;;8.75;2.40;;;;;;;;;;5012836;28;20033;-77
2023/05/10 07:27:32;;;;;;;1.70;1.60;;;;;;;;;;4994105;28;20018;-76
2023/05/10 07:29:59;;;;;;;6.55;2.45;;;;;;;;;;5013330;28;20037;-78
2023/05/10 07:32:25;;;;;;;5.03;1.70;;;;;;;;;;4995857;28;20517;-77
2023/05/10 07:34:54;;;;;;;6.25;2.08;;;;;;;;;;4995681;28;20034;-76
2023/05/10 07:37:20;;;;;;;7.57;2.22;;;;;;;;;;5013527;28;20049;-78
2023/05/10 07:39:48;;;;;;;4.75;1.80;;;;;;;;;;4996696;28;20153;-76
2023/05/10 07:42:19;;;;;;;3.30;1.85;;;;;;;;;;5013104;28;20029;-78
2023/05/10 07:44:48;;;;;;;9.32;2.15;;;;;;;;;;5013577;28;20032;-77
2023/05/10 07:47:14;;;;;;;3.05;1.85;;;;;;;;;;4995083;28;20038;-77
2023/05/10 07:49:44;;;;;;;6.40;2.10;;;;;;;;;;4996061;28;20026;-77
2023/05/10 07:52:10;;;;;;;4.88;2.42;;;;;;;;;;5013662;28;20694;-77
2023/05/10 07:54:40;;;;;;;4.85;1.90;;;;;;;;;;4995756;28;20037;-77
2023/05/10 07:57:06;;;;;;;2.53;2.33;;;;;;;;;;5012697;28;20516;-76
2023/05/10 07:59:32;;;;;;;4.90;2.08;;;;;;;;;;5004878;28;20034;-77
2023/05/10 08:02:01;;;;;;;5.03;2.08;;;;;;;;;;4993580;28;20081;-77
2023/05/10 08:04:29;;;;;;;3.45;2.08;;;;;;;;;;4993481;28;20097;-77
2023/05/10 08:06:55;;;;;;;2.22;1.75;;;;;;;;;;4993463;28;20066;-77
2023/05/10 08:09:24;;;;;;;6.47;2.20;;;;;;;;;;4975477;28;20030;-78
2023/05/10 08:11:50;;;;;;;4.38;2.28;;;;;;;;;;4975902;28;20374;-78
2023/05/10 08:14:20;;;;;;;2.05;1.83;;;;;;;;;;4975751;28;20035;-77
2023/05/10 08:16:46;;;;;;;3.45;1.92;;;;;;;;;;4993206;28;20026;-78
2023/05/10 08:19:12;;;;;;;5.38;2.10;;;;;;;;;;4992593;28;20481;-78
2023/05/10 08:21:41;;;;;;;6.57;2.10;;;;;;;;;;4975584;28;20041;-77
2023/05/10 08:24:10;;;;;;;2.72;2.20;;;;;;;;;;4993129;28;20401;-78
2023/05/10 08:26:36;;;;;;;5.28;2.30;;;;;;;;;;4992869;28;20543;-78
2023/05/10 08:29:02;;;;;;;4.93;2.50;;;;;;;;;;4992359;28;20484;-77
2023/05/10 08:31:30;;;;;;;9.95;2.70;;;;;;;;;;4993274;28;20022;-77
2023/05/10 08:34:07;;;;;;;4.35;2.45;;;;;;;;;;4992932;28;20388;-77
2023/05/10 08:36:33;;;;;;;5.45;2.88;;;;;;;;;;4993009;28;20029;-77
2023/05/10 08:38:59;;;;;;;5.88;2.25;;;;;;;;;;4973807;28;20260;-78
2023/05/10 08:41:25;;;;;;;2.63;2.05;;;;;;;;;;4992371;28;20030;-78
2023/05/10 08:43:52;;;;;;;3.20;2.00;;;;;;;;;;4993641;28;20501;-78
2023/05/10 08:46:19;;;;;;;2.95;1.95;;;;;;;;;;4992968;28;20033;-78
2023/05/10 08:48:48;;;;;;;6.13;2.42;;;;;;;;;;4974638;28;20066;-78
2023/05/10 08:51:19;;;;;;;7.28;2.55;;;;;;;;;;4975669;28;20022;-78
2023/05/10 08:53:46;;;;;;;7.07;2.40;;;;;;;;;;4993957;28;20503;-77
2023/05/10 08:56:17;;;;;;;5.82;2.28;;;;;;;;;;4993633;28;20034;-78
2023/05/10 08:58:43;;;;;;;5.05;2.28;;;;;;;;;;4993195;28;20034;-78
2023/05/10 09:01:10;;;;;;;3.00;2.10;;;;;;;;;;5012193;28;20113;-78
2023/05/10 09:03:41;;;;;;;2.67;2.10;;;;;;;;;;5011952;28;20030;-78
2023/05/10 09:06:07;;;;;;;3.83;2.42;;;;;;;;;;5012289;28;20026;-78
2023/05/10 09:08:34;;;;;;;2.67;2.20;;;;;;;;;;5011502;28;20109;-77
2023/05/10 09:11:01;;;;;;;4.82;2.80;;;;;;;;;;4994485;28;20065;-78
2023/05/10 09:13:27;;;;;;;5.60;2.28;;;;;;;;;;5011556;28;20034;-77
2023/05/10 09:15:54;;;;;;;4.60;2.30;;;;;;;;;;5011953;28;20132;-78
2023/05/10 09:18:20;;;;;;;5.38;2.67;;;;;;;;;;5011194;28;20121;-77
2023/05/10 09:20:46;;;;;;;8.43;2.70;;;;;;;;;;4994482;28;20125;-77
2023/05/10 09:23:12;;;;;;;3.47;2.33;;;;;;;;;;5011781;28;20025;-77
2023/05/10 09:25:39;;;;;;;7.43;2.42;;;;;;;;;;4994172;28;20033;-78
2023/05/10 09:28:09;;;;;;;2.67;2.10;;;;;;;;;;5011335;28;20022;-78
2023/05/10 09:30:35;;;;;;;4.80;2.42;;;;;;;;;;4994059;28;20029;-77
2023/05/10 09:33:01;;;;;;;5.80;2.55;;;;;;;;;;4994024;28;20057;-77
2023/05/10 09:35:28;;;;;;;5.55;2.70;;;;;;;;;;4994045;28;20026;-78
2023/05/10 09:37:56;;;;;;;4.10;2.83;;;;;;;;;;4992986;28;20050;-77
2023/05/10 09:40:23;;;;;;;6.20;2.67;;;;;;;;;;4994152;28;20484;-75
2023/05/10 09:42:54;;;;;;;4.35;2.60;;;;;;;;;;5012558;28;20034;-77
2023/05/10 09:45:21;;;;;;;4.10;2.53;;;;;;;;;;4996474;28;20022;-77
2023/05/10 09:47:47;;;;;;;3.03;2.67;;;;;;;;;;4993946;28;20026;-77
2023/05/10 09:50:13;;;;;;;6.05;2.47;;;;;;;;;;5012076;28;20365;-77
2023/05/10 09:52:51;;;;;;;4.88;2.38;;;;;;;;;;5015750;28;20384;-77
2023/05/10 09:55:20;;;;;;;4.43;2.58;;;;;;;;;;5015714;28;20037;-78
2023/05/10 09:57:52;;;;;;;3.60;2.97;;;;;;;;;;5015563;28;20022;-78
2023/05/10 10:00:19;;;;;;;14.45;10.70;;;;;;;;;;4997240;28;20034;-76
2023/05/10 10:02:49;;;;;;;6.45;3.17;;;;;;;;;;5015396;28;20091;-77
2023/05/10 10:05:15;;;;;;;7.80;2.60;;;;;;;;;;5015367;28;20403;-77
2023/05/10 10:07:43;;;;;;;5.75;2.72;;;;;;;;;;5014700;28;20029;-77
2023/05/10 10:10:12;;;;;;;5.10;2.88;;;;;;;;;;4997591;28;20037;-77
2023/05/10 10:12:38;;;;;;;6.72;2.90;;;;;;;;;;5014928;28;20109;-76
2023/05/10 10:15:06;;;;;;;9.93;2.83;;;;;;;;;;5015530;28;20029;-78
2023/05/10 10:17:33;;;;;;;3.42;2.88;;;;;;;;;;5015014;28;20017;-78
2023/05/10 10:20:00;;;;;;;2.58;2.35;;;;;;;;;;5015350;28;20030;-78
2023/05/10 10:22:26;;;;;;;10.98;3.55;;;;;;;;;;5015403;28;20024;-78
2023/05/10 10:24:55;;;;;;;4.82;3.25;;;;;;;;;;5015056;28;20076;-77
2023/05/10 10:27:29;;;;;;;3.55;2.97;;;;;;;;;;4996688;28;20026;-77
2023/05/10 10:30:07;;;;;;;3.63;2.78;;;;;;;;;;4997580;28;20499;-78
2023/05/10 10:32:39;;;;;;;5.25;3.40;;;;;;;;;;5015034;28;20022;-77
2023/05/10 10:35:05;;;;;;;4.72;2.78;;;;;;;;;;4997289;28;20022;-78
2023/05/10 10:37:44;;;;;;;6.32;3.22;;;;;;;;;;5014167;28;20034;-78
2023/05/10 10:40:30;;;;;;;7.65;3.20;;;;;;;;;;5014782;28;20026;-76
2023/05/10 10:42:56;;;;;;;4.18;3.10;;;;;;;;;;4996554;28;20065;-77
2023/05/10 10:45:23;;;;;;;3.67;2.72;;;;;;;;;;4996962;28;20532;-78
2023/05/10 10:47:51;;;;;;;4.85;3.25;;;;;;;;;;4996996;28;20116;-78
2023/05/10 10:50:20;;;;;;;7.03;3.00;;;;;;;;;;5015458;28;20048;-78
2023/05/10 10:52:49;;;;;;;3.08;2.58;;;;;;;;;;4997556;28;20377;-77
2023/05/10 10:55:19;;;;;;;6.57;3.13;;;;;;;;;;5014864;28;20030;-78
2023/05/10 10:57:45;;;;;;;5.43;2.72;;;;;;;;;;5013760;28;20057;-78
2023/05/10 11:00:27;;;;;;;3.08;2.63;;;;;;;;;;5001200;28;20488;-78
2023/05/10 11:02:56;;;;;;;12.60;3.00;;;;;;;;;;4993245;28;20403;-77
2023/05/10 11:05:36;;;;;;;5.85;3.30;;;;;;;;;;4993361;28;20022;-78
2023/05/10 11:08:08;;;;;;;4.25;3.10;;;;;;;;;;4993060;28;20105;-78
2023/05/10 11:10:34;;;;;;;6.50;2.85;;;;;;;;;;4978665;28;20085;-77
2023/05/10 11:13:05;;;;;;;2.85;2.50;;;;;;;;;;4994683;28;20521;-76
2023/05/10 11:15:38;;;;;;;4.50;2.85;;;;;;;;;;5013213;28;20045;-78
2023/05/10 11:18:23;;;;;;;4.13;3.00;;;;;;;;;;4993131;28;20030;-77
2023/05/10 11:20:55;;;;;;;4.35;3.00;;;;;;;;;;5010534;28;20029;-76
2023/05/10 11:23:21;;;;;;;4.22;2.55;;;;;;;;;;5011400;28;20054;-77
2023/05/10 11:25:48;;;;;;;9.00;3.10;;;;;;;;;;5011500;28;20037;-74
2023/05/10 11:28:17;;;;;;;3.20;2.50;;;;;;;;;;5006686;28;20495;-76
2023/05/10 11:30:44;;;;;;;3.85;3.08;;;;;;;;;;4993523;28;20033;-76
2023/05/10 11:33:15;;;;;;;9.52;3.08;;;;;;;;;;4992696;28;20097;-77
2023/05/10 11:35:41;;;;;;;;;;;;;;;;;;4994162;28;20030;-76
2023/05/10 11:38:08;;;;;;;6.68;3.25;;;;;;;;;;4992768;28;19920;-77
2023/05/10 11:40:35;;;;;;;5.40;3.35;;;;;;;;;;4993506;28;20027;-75
2023/05/10 11:43:01;;;;;;;7.25;3.50;;;;;;;;;;4976095;28;20033;-76
2023/05/10 11:45:28;;;;;;;5.97;2.80;;;;;;;;;;4993151;28;20469;-77
2023/05/10 11:47:54;;;;;;;5.68;4.18;;;;;;;;;;4975860;28;20037;-77
2023/05/10 11:50:23;;;;;;;10.52;3.80;;;;;;;;;;4998567;28;20022;-76
2023/05/10 11:52:55;;;;;;;10.85;3.83;;;;;;;;;;4985698;28;20029;-76
2023/05/10 11:55:22;;;;;;;5.70;3.47;;;;;;;;;;4981770;28;20034;-76
2023/05/10 11:57:48;;;;;;;6.82;3.50;;;;;;;;;;4975532;28;20022;-76
2023/05/10 12:00:14;;;;;;;17.80;4.03;;;;;;;;;;5011990;28;20029;-77
2023/05/10 12:02:43;;;;;;;5.57;2.92;;;;;;;;;;5013391;28;20369;-76
2023/05/10 12:05:09;;;;;;;4.00;3.08;;;;;;;;;;4993059;28;20084;-75
2023/05/10 12:07:35;;;;;;;9.43;2.70;;;;;;;;;;5011342;28;20032;-77
2023/05/10 12:10:09;;;;;;;3.53;3.03;;;;;;;;;;5011642;28;20025;-77
2023/05/10 12:12:39;;;;;;;5.15;2.65;;;;;;;;;;4993786;28;20018;-77
2023/05/10 12:15:06;;;;;;;3.03;2.70;;;;;;;;;;5011045;28;20461;-76
2023/05/10 12:17:32;;;;;;;8.38;3.33;;;;;;;;;;5009943;28;20392;-75
2023/05/10 12:20:17;;;;;;;5.57;2.45;;;;;;;;;;5011214;28;20029;-75
2023/05/10 12:22:53;;;;;;;3.25;2.63;;;;;;;;;;5007841;28;20040;-76
2023/05/10 12:25:24;;;;;;;6.38;2.90;;;;;;;;;;5005696;28;20040;-75
2023/05/10 12:27:54;;;;;;;4.77;2.50;;;;;;;;;;4978907;28;20022;-75
2023/05/10 12:30:24;;;;;;;4.82;2.90;;;;;;;;;;4994380;28;20023;-75
2023/05/10 12:32:51;;;;;;;6.43;2.65;;;;;;;;;;4994866;28;20034;-77
2023/05/10 12:35:17;;;;;;;4.40;2.83;;;;;;;;;;5012651;28;20030;-73
2023/05/10 12:40:17;;;;;;;11.95;3.08;;;;;;;;;;5028801;28;20059;-75
2023/05/10 12:42:46;;;;;;;6.75;2.63;;;;;;;;;;5031951;28;20116;-76
2023/05/10 12:45:12;;;;;;;7.68;3.17;;;;;;;;;;5031781;28;20022;-76
2023/05/10 12:47:39;;;;;;;6.38;2.72;;;;;;;;;;5031547;28;20097;-76
2023/05/10 12:50:05;;;;;;;6.53;4.32;;;;;;;;;;5050508;28;20454;-76
2023/05/10 12:52:32;;;;;;;3.30;3.00;;;;;;;;;;5050799;28;20104;-76
2023/05/10 12:54:58;;;;;;;7.57;2.97;;;;;;;;;;5050243;28;20558;-76
2023/05/10 12:57:25;;;;;;;8.15;3.53;;;;;;;;;;5049730;28;20025;-76
2023/05/10 12:59:51;;;;;;;5.03;2.83;;;;;;;;;;5045567;28;20017;-75
2023/05/10 13:02:18;;;;;;;5.53;2.60;;;;;;;;;;5043589;28;20014;-75
2023/05/10 13:04:44;;;;;;;3.67;2.55;;;;;;;;;;5031919;28;20048;-74
2023/05/10 13:07:10;;;;;;;3.63;2.63;;;;;;;;;;5044776;28;20067;-77
2023/05/10 13:09:36;;;;;;;5.53;2.40;;;;;;;;;;5049914;28;20464;-75
2023/05/10 13:12:02;;;;;;;3.45;2.58;;;;;;;;;;5050908;28;20016;-75
2023/05/10 13:14:29;;;;;;;3.03;2.72;;;;;;;;;;5051229;28;20025;-75
2023/05/10 13:16:55;;;;;;;3.47;2.95;;;;;;;;;;5050908;28;20032;-75
2023/05/10 13:19:22;;;;;;;4.35;2.80;;;;;;;;;;5048983;28;20052;-75
2023/05/10 13:21:48;;;;;;;10.90;3.00;;;;;;;;;;5049769;28;20455;-75
2023/05/10 13:24:14;;;;;;;4.18;2.58;;;;;;;;;;5049374;28;20020;-75
2023/05/10 13:26:40;;;;;;;3.55;3.08;;;;;;;;;;5049600;28;20041;-75
2023/05/10 13:29:07;;;;;;;3.22;2.47;;;;;;;;;;5049070;28;20100;-75
2023/05/10 13:31:33;;;;;;;6.85;2.30;;;;;;;;;;5049592;28;20036;-76
2023/05/10 13:33:59;;;;;;;7.93;2.50;;;;;;;;;;5049352;28;20114;-76
2023/05/10 13:36:26;;;;;;;3.42;2.40;;;;;;;;;;5049886;28;20029;-75
2023/05/10 13:38:52;;;;;;;3.38;2.10;;;;;;;;;;5050430;28;20028;-75
2023/05/10 13:41:18;;;;;;;3.00;2.38;;;;;;;;;;5051306;28;20031;-75
2023/05/10 13:43:44;;;;;;;4.20;2.70;;;;;;;;;;5051134;28;20510;-76
2023/05/10 13:46:10;;;;;;;2.75;2.45;;;;;;;;;;5051120;28;20037;-76
2023/05/10 13:48:39;;;;;;;3.35;2.58;;;;;;;;;;5049062;28;20025;-75
2023/05/10 13:51:05;;;;;;;3.92;2.95;;;;;;;;;;5051122;28;20408;-76
2023/05/10 13:53:31;;;;;;;3.67;2.70;;;;;;;;;;5050954;28;20017;-76
2023/05/10 13:55:57;;;;;;;3.25;2.08;;;;;;;;;;5049648;28;20017;-76
2023/05/10 13:58:23;;;;;;;2.35;2.15;;;;;;;;;;5050277;28;20017;-76
2023/05/10 14:00:49;;;;;;;5.25;2.22;;;;;;;;;;5051056;28;20018;-76
2023/05/10 14:03:15;;;;;;;10.20;3.10;;;;;;;;;;5049665;28;20025;-75
2023/05/10 14:05:41;;;;;;;3.80;2.40;;;;;;;;;;5051244;28;20029;-77
2023/05/10 14:08:09;;;;;;;6.53;3.10;;;;;;;;;;5048897;28;20025;-75
2023/05/10 14:10:35;;;;;;;4.20;2.55;;;;;;;;;;5050748;28;20029;-75
2023/05/10 14:13:01;;;;;;;3.90;2.83;;;;;;;;;;5050458;28;20025;-76
2023/05/10 14:15:27;;;;;;;5.13;2.95;;;;;;;;;;5050673;28;20368;-75
2023/05/10 14:17:53;;;;;;;8.55;3.40;;;;;;;;;;5050382;28;20052;-75
2023/05/10 14:20:19;;;;;;;4.70;2.60;;;;;;;;;;5050890;28;20043;-76
2023/05/10 14:22:45;;;;;;;6.30;2.95;;;;;;;;;;5045306;28;20017;-76
2023/05/10 14:25:11;;;;;;;3.97;2.60;;;;;;;;;;5051032;28;20021;-76
2023/05/10 14:27:37;;;;;;;2.92;2.30;;;;;;;;;;5050766;28;20025;-77
2023/05/10 14:30:03;;;;;;;5.50;3.40;;;;;;;;;;5052684;28;20028;-74
2023/05/10 14:32:31;;;;;;;3.08;2.78;;;;;;;;;;5033591;28;20036;-74
2023/05/10 14:34:57;;;;;;;6.00;2.80;;;;;;;;;;5032828;28;20017;-75
2023/05/10 14:37:23;;;;;;;4.25;2.78;;;;;;;;;;5029453;28;20040;-75
2023/05/10 14:39:49;;;;;;;4.10;2.58;;;;;;;;;;5032211;28;20128;-75
2023/05/10 14:42:15;;;;;;;3.63;2.75;;;;;;;;;;5034054;28;20017;-75
2023/05/10 14:44:41;;;;;;;7.63;2.92;;;;;;;;;;5034442;28;20029;-75
2023/05/10 14:47:07;;;;;;;8.75;3.10;;;;;;;;;;5033270;28;20446;-75
2023/05/10 14:49:33;;;;;;;4.18;3.30;;;;;;;;;;5033932;28;20029;-75